createdAt,value
2023-02-15T00:01:45.965Z,47.22
2023-02-15T00:04:17.875Z,46.44
2023-02-15T00:06:44.727Z,47.72
2023-02-15T00:09:13.196Z,47.96
2023-02-15T00:11:52.690Z,46.50
2023-02-15T00:14:24.624Z,46.27
2023-02-15T00:16:53.308Z,46.74
2023-02-15T00:19:21.736Z,47.99
2023-02-15T00:21:49.852Z,47.55
2023-02-15T00:24:18.530Z,47.97
2023-02-15T00:26:46.689Z,47.60
2023-02-15T00:29:15.602Z,46.75
2023-02-15T00:31:43.423Z,46.79
2023-02-15T00:34:20.096Z,46.82
2023-02-15T00:36:47.502Z,47.56
2023-02-15T00:39:15.814Z,48.12
2023-02-15T00:41:43.470Z,49.10
2023-02-15T00:44:11.266Z,47.41
2023-02-15T00:46:38.300Z,47.71
2023-02-15T00:49:06.306Z,48.83
2023-02-15T00:51:33.798Z,48.09
2023-02-15T00:54:00.772Z,48.88
2023-02-15T00:56:29.658Z,49.24
2023-02-15T00:58:56.844Z,48.28
2023-02-15T01:01:24.545Z,49.67
2023-02-15T01:03:51.751Z,49.46
2023-02-15T01:06:18.928Z,49.28
2023-02-15T01:08:46.825Z,49.67
2023-02-15T01:11:22.894Z,49.15
2023-02-15T01:13:53.407Z,49.26
2023-02-15T01:16:21.226Z,49.22
2023-02-15T01:18:48.897Z,49.16
2023-02-15T01:21:18.978Z,48.47
2023-02-15T01:23:45.922Z,49.42
2023-02-15T01:26:13.898Z,49.25
2023-02-15T01:28:41.070Z,49.88
2023-02-15T01:31:15.541Z,49.46
2023-02-15T01:33:44.736Z,48.44
2023-02-15T01:36:12.663Z,49.13
2023-02-15T01:38:43.098Z,48.20
2023-02-15T01:41:23.864Z,48.18
2023-02-15T01:44:02.127Z,48.40
2023-02-15T01:46:38.007Z,48.63
2023-02-15T01:49:27.590Z,49.44
2023-02-15T01:51:54.940Z,49.24
2023-02-15T01:54:32.701Z,48.26
2023-02-15T01:57:04.451Z,48.57
2023-02-15T01:59:33.960Z,48.93
2023-02-15T02:02:03.217Z,49.38
2023-02-15T02:04:48.306Z,49.07
2023-02-15T02:07:18.496Z,48.39
2023-02-15T02:09:46.251Z,48.82
2023-02-15T02:12:13.622Z,48.60
2023-02-15T02:14:41.599Z,48.78
2023-02-15T02:17:18.642Z,48.39
2023-02-15T02:20:32.877Z,48.64
2023-02-15T02:23:14.987Z,48.45
2023-02-15T02:26:00.966Z,49.34
2023-02-15T02:28:43.690Z,48.62
2023-02-15T02:31:25.929Z,48.19
2023-02-15T02:34:21.622Z,48.12
2023-02-15T02:37:00.706Z,48.99
2023-02-15T02:39:56.069Z,48.63
2023-02-15T02:42:35.595Z,47.52
2023-02-15T02:45:26.816Z,48.31
2023-02-15T02:47:56.599Z,49.56
2023-02-15T02:50:27.735Z,49.80
2023-02-15T02:52:59.481Z,49.60
2023-02-15T02:55:50.972Z,48.09
2023-02-15T02:58:37.826Z,48.26
2023-02-15T03:01:14.329Z,48.22
2023-02-15T03:03:54.343Z,48.28
2023-02-15T03:06:31.561Z,47.66
2023-02-15T03:09:04.492Z,49.25
2023-02-15T03:11:31.750Z,48.53
2023-02-15T03:13:59.220Z,48.82
2023-02-15T03:16:27.366Z,48.08
2023-02-15T03:19:09.277Z,48.85
2023-02-15T03:21:59.111Z,48.54
2023-02-15T03:24:35.587Z,48.59
2023-02-15T03:27:12.958Z,49.57
2023-02-15T03:29:40.821Z,50.57
2023-02-15T03:32:12.956Z,49.39
2023-02-15T03:34:39.988Z,49.16
2023-02-15T03:37:12.735Z,48.54
2023-02-15T03:39:47.542Z,49.02
2023-02-15T03:42:18.922Z,48.84
2023-02-15T03:44:53.264Z,48.78
2023-02-15T03:47:29.617Z,49.44
2023-02-15T03:50:02.023Z,48.80
2023-02-15T03:52:31.331Z,48.82
2023-02-15T03:54:58.503Z,49.78
2023-02-15T03:57:48.885Z,49.22
2023-02-15T04:00:44.923Z,48.96
2023-02-15T04:03:30.143Z,48.97
2023-02-15T04:05:56.866Z,49.13
2023-02-15T04:08:43.761Z,49.10
2023-02-15T04:11:10.596Z,49.08
2023-02-15T04:13:37.373Z,49.58
2023-02-15T04:16:05.498Z,48.84
2023-02-15T04:19:01.223Z,48.67
2023-02-15T04:21:49.172Z,48.79
2023-02-15T04:24:35.058Z,48.88
2023-02-15T04:27:03.389Z,48.98
2023-02-15T04:29:30.441Z,48.36
2023-02-15T04:31:59.098Z,48.65
2023-02-15T04:34:26.515Z,48.06
2023-02-15T04:36:53.231Z,47.72
2023-02-15T04:39:20.128Z,48.33
2023-02-15T04:41:47.078Z,48.22
2023-02-15T04:44:13.970Z,48.62
2023-02-15T04:46:40.791Z,48.77
2023-02-15T04:49:07.596Z,49.06
2023-02-15T04:51:34.559Z,49.15
2023-02-15T04:54:01.282Z,48.55
2023-02-15T04:56:28.139Z,47.55
2023-02-15T04:58:54.837Z,48.15
2023-02-15T05:01:21.659Z,47.90
2023-02-15T05:03:48.428Z,47.62
2023-02-15T05:06:15.221Z,47.50
2023-02-15T05:08:42.018Z,47.17
2023-02-15T05:11:08.798Z,48.08
2023-02-15T05:13:35.582Z,47.83
2023-02-15T05:16:02.754Z,48.70
2023-02-15T05:18:29.807Z,47.76
2023-02-15T05:20:57.951Z,47.89
2023-02-15T05:23:24.767Z,48.56
2023-02-15T05:26:10.494Z,47.83
2023-02-15T05:28:38.581Z,47.29
2023-02-15T05:31:17.711Z,47.73
2023-02-15T05:33:45.490Z,48.17
2023-02-15T05:36:12.980Z,47.14
2023-02-15T05:38:40.329Z,47.93
2023-02-15T05:41:08.671Z,48.35
2023-02-15T05:43:36.268Z,51.01
2023-02-15T05:46:04.183Z,50.26
2023-02-15T05:48:32.464Z,51.20
2023-02-15T05:51:05.827Z,48.10
2023-02-15T05:53:34.625Z,47.48
2023-02-15T05:56:03.612Z,47.91
2023-02-15T05:58:33.960Z,47.56
2023-02-15T06:01:00.900Z,47.41
2023-02-15T06:03:29.713Z,48.13
2023-02-15T06:05:56.634Z,47.10
2023-02-15T06:08:23.430Z,47.52
2023-02-15T06:10:50.258Z,47.72
2023-02-15T06:13:17.065Z,48.41
2023-02-15T06:15:43.840Z,47.47
2023-02-15T06:18:10.628Z,47.28
2023-02-15T06:20:37.429Z,47.10
2023-02-15T06:23:04.295Z,46.44
2023-02-15T06:25:31.120Z,46.95
2023-02-15T06:27:57.997Z,46.71
2023-02-15T06:30:25.087Z,47.38
2023-02-15T06:32:51.843Z,46.43
2023-02-15T06:35:18.735Z,46.56
2023-02-15T06:37:47.834Z,47.10
2023-02-15T06:40:15.408Z,46.79
2023-02-15T06:42:43.757Z,47.38
2023-02-15T06:45:11.389Z,46.60
2023-02-15T06:47:38.072Z,45.73
2023-02-15T06:50:07.300Z,46.95
2023-02-15T06:52:34.709Z,46.57
2023-02-15T06:55:01.564Z,48.00
2023-02-15T06:57:28.281Z,46.21
2023-02-15T06:59:55.137Z,48.73
2023-02-15T07:02:21.950Z,47.74
2023-02-15T07:04:48.860Z,46.16
2023-02-15T07:07:15.783Z,46.52
2023-02-15T07:09:42.546Z,46.72
2023-02-15T07:12:28.958Z,46.45
2023-02-15T07:14:55.902Z,45.97
2023-02-15T07:17:38.541Z,46.27
2023-02-15T07:20:10.272Z,45.61
2023-02-15T07:22:37.786Z,45.71
2023-02-15T07:25:06.379Z,45.94
2023-02-15T07:27:33.531Z,46.05
2023-02-15T07:30:01.357Z,45.11
2023-02-15T07:32:32.460Z,44.63
2023-02-15T07:35:00.257Z,45.03
2023-02-15T07:37:27.903Z,44.97
2023-02-15T07:39:54.725Z,46.02
2023-02-15T07:42:23.041Z,45.75
2023-02-15T07:44:50.211Z,45.62
2023-02-15T07:47:16.987Z,45.66
2023-02-15T07:49:44.008Z,45.27
2023-02-15T07:52:10.834Z,44.88
2023-02-15T07:54:37.658Z,44.69
2023-02-15T07:57:05.027Z,44.91
2023-02-15T07:59:31.767Z,44.75
2023-02-15T08:01:58.623Z,45.16
2023-02-15T08:04:25.453Z,43.84
2023-02-15T08:06:55.954Z,44.88
2023-02-15T08:09:23.352Z,44.38
2023-02-15T08:11:51.116Z,44.69
2023-02-15T08:14:23.184Z,44.07
2023-02-15T08:16:56.759Z,44.05
2023-02-15T08:19:25.245Z,42.61
2023-02-15T08:22:00.347Z,43.63
2023-02-15T08:24:31.450Z,42.96
2023-02-15T08:26:59.431Z,43.99
2023-02-15T08:29:28.315Z,43.64
2023-02-15T08:32:03.583Z,43.42
2023-02-15T08:34:41.928Z,42.99
2023-02-15T08:37:09.368Z,42.77
2023-02-15T08:39:36.121Z,43.08
2023-02-15T08:42:03.433Z,42.76
2023-02-15T08:44:30.649Z,42.87
2023-02-15T08:47:03.628Z,44.17
2023-02-15T08:49:30.821Z,42.97
2023-02-15T08:51:57.583Z,42.78
2023-02-15T08:54:24.439Z,42.70
2023-02-15T08:56:51.224Z,42.67
2023-02-15T08:59:20.641Z,42.55
2023-02-15T09:01:49.131Z,43.11
2023-02-15T09:04:16.833Z,41.80
2023-02-15T09:06:48.774Z,41.54
2023-02-15T09:09:17.833Z,41.89
2023-02-15T09:11:47.198Z,41.94
2023-02-15T09:14:21.218Z,42.12
2023-02-15T09:16:50.506Z,40.89
2023-02-15T09:19:20.816Z,40.55
2023-02-15T09:21:47.883Z,40.39
2023-02-15T09:24:16.626Z,40.52
2023-02-15T09:26:45.753Z,40.89
2023-02-15T09:29:14.059Z,39.93
2023-02-15T09:31:49.853Z,40.45
2023-02-15T09:34:19.349Z,40.20
2023-02-15T09:36:47.596Z,39.63
2023-02-15T09:39:24.840Z,39.85
2023-02-15T09:41:57.620Z,40.67
2023-02-15T09:44:58.268Z,41.43
2023-02-15T09:47:46.923Z,40.70
2023-02-15T09:50:44.469Z,39.74
2023-02-15T09:53:30.479Z,40.13
2023-02-15T09:56:39.804Z,39.97
2023-02-15T09:59:31.826Z,39.88
2023-02-15T10:02:36.869Z,39.93
2023-02-15T10:05:28.288Z,40.36
2023-02-15T10:07:56.198Z,39.05
2023-02-15T10:10:42.374Z,39.51
2023-02-15T10:13:09.088Z,41.16
2023-02-15T10:15:58.255Z,41.57
2023-02-15T10:18:40.019Z,40.08
2023-02-15T10:21:22.269Z,40.32
2023-02-15T10:24:05.416Z,40.04
2023-02-15T10:26:46.888Z,40.62
2023-02-15T10:29:17.691Z,40.42
2023-02-15T10:32:03.200Z,39.33
2023-02-15T10:34:41.197Z,39.53
2023-02-15T10:37:29.624Z,39.13
2023-02-15T10:40:06.242Z,39.31
2023-02-15T10:43:05.397Z,39.33
2023-02-15T10:45:58.363Z,38.96
2023-02-15T10:48:43.573Z,39.03
2023-02-15T10:51:27.602Z,39.79
2023-02-15T10:54:31.838Z,40.66
2023-02-15T10:57:38.160Z,40.58
2023-02-15T11:00:39.369Z,40.96
2023-02-15T11:03:53.091Z,41.25
2023-02-15T11:06:22.328Z,39.19
2023-02-15T11:08:57.398Z,38.41
2023-02-15T11:11:30.582Z,39.90
2023-02-15T11:14:06.219Z,39.99
2023-02-15T11:16:37.652Z,40.45
2023-02-15T11:19:18.127Z,40.90
2023-02-15T11:21:50.961Z,39.96
2023-02-15T11:24:21.165Z,39.50
2023-02-15T11:26:57.750Z,39.22
2023-02-15T11:29:33.172Z,39.57
2023-02-15T11:32:14.598Z,38.82
2023-02-15T11:35:13.528Z,39.22
2023-02-15T11:38:06.251Z,40.11
2023-02-15T11:40:42.595Z,38.90
2023-02-15T11:43:15.540Z,39.18
2023-02-15T11:45:45.667Z,39.72
2023-02-15T11:48:16.254Z,39.86
2023-02-15T11:50:45.950Z,39.32
2023-02-15T11:53:25.912Z,39.23
2023-02-15T11:55:53.482Z,38.23
2023-02-15T11:58:43.141Z,37.21
2023-02-15T12:01:28.245Z,37.18
2023-02-15T12:03:59.407Z,36.98
2023-02-15T12:06:30.454Z,36.99
2023-02-15T12:09:06.486Z,36.11
2023-02-15T12:11:42.514Z,34.87
2023-02-15T12:14:12.736Z,35.34
2023-02-15T12:16:56.089Z,34.71
2023-02-15T12:19:41.500Z,35.50
2023-02-15T12:22:37.302Z,34.78
2023-02-15T12:25:22.926Z,35.09
2023-02-15T12:27:50.759Z,34.51
2023-02-15T12:30:31.892Z,34.73
2023-02-15T12:33:22.393Z,33.55
2023-02-15T12:36:00.575Z,32.79
2023-02-15T12:38:29.666Z,31.43
2023-02-15T12:41:23.807Z,31.76
2023-02-15T12:44:20.016Z,31.47
2023-02-15T12:47:17.131Z,30.51
2023-02-15T12:49:48.364Z,31.16
2023-02-15T12:52:21.311Z,30.42
2023-02-15T12:54:48.572Z,29.46
2023-02-15T12:57:33.231Z,28.64
2023-02-15T13:00:01.755Z,27.96
2023-02-15T13:02:31.044Z,29.52
2023-02-15T13:05:05.223Z,29.31
2023-02-15T13:07:33.200Z,27.68
2023-02-15T13:10:00.409Z,28.56
2023-02-15T13:12:31.671Z,26.58
2023-02-15T13:15:00.279Z,25.65
2023-02-15T13:17:35.550Z,26.35
2023-02-15T13:20:08.632Z,25.75
2023-02-15T13:22:44.362Z,24.92
2023-02-15T13:25:23.796Z,24.47
2023-02-15T13:27:55.865Z,24.37
2023-02-15T13:30:35.906Z,24.97
2023-02-15T13:33:10.320Z,25.22
2023-02-15T13:36:02.991Z,25.27
2023-02-15T13:38:39.210Z,25.14
2023-02-15T13:41:12.920Z,25.62
2023-02-15T13:43:51.907Z,25.95
2023-02-15T13:46:36.647Z,24.71
2023-02-15T13:49:17.649Z,24.42
2023-02-15T13:51:48.117Z,25.41
2023-02-15T13:54:49.346Z,26.96
2023-02-15T13:57:33.236Z,25.75
2023-02-15T14:00:26.908Z,26.14
2023-02-15T14:03:14.178Z,26.73
2023-02-15T14:06:11.080Z,26.01
2023-02-15T14:08:40.657Z,27.21
2023-02-15T14:11:22.424Z,26.67
2023-02-15T14:14:00.354Z,26.85
2023-02-15T14:16:42.323Z,26.46
2023-02-15T14:19:27.429Z,26.37
2023-02-15T14:22:36.434Z,27.63
2023-02-15T14:25:31.544Z,28.29
2023-02-15T14:28:17.581Z,29.93
2023-02-15T14:30:49.459Z,31.19
2023-02-15T14:33:33.192Z,31.25
2023-02-15T14:36:04.081Z,31.79
2023-02-15T14:38:45.941Z,31.91
2023-02-15T14:41:20.384Z,32.53
2023-02-15T14:44:08.761Z,32.49
2023-02-15T14:46:48.051Z,33.34
2023-02-15T14:49:23.299Z,33.04
2023-02-15T14:51:51.128Z,33.57
2023-02-15T14:54:20.817Z,34.88
2023-02-15T14:57:02.961Z,34.84
2023-02-15T14:59:45.522Z,34.96
2023-02-15T15:02:26.964Z,35.34
2023-02-15T15:05:08.901Z,35.01
2023-02-15T15:07:54.821Z,35.05
2023-02-15T15:10:21.669Z,35.44
2023-02-15T15:12:58.794Z,37.08
2023-02-15T15:15:28.702Z,36.71
2023-02-15T15:17:59.576Z,36.31
2023-02-15T15:20:52.625Z,36.20
2023-02-15T15:23:19.525Z,36.17
2023-02-15T15:25:52.968Z,36.18
2023-02-15T15:28:42.706Z,36.55
2023-02-15T15:31:22.093Z,36.33
2023-02-15T15:34:19.891Z,36.63
2023-02-15T15:37:22.112Z,37.15
2023-02-15T15:40:24.132Z,36.93
2023-02-15T15:43:13.896Z,37.20
2023-02-15T15:45:57.621Z,37.20
2023-02-15T15:48:31.204Z,37.10
2023-02-15T15:51:01.628Z,37.54
2023-02-15T15:53:32.719Z,37.04
2023-02-15T15:56:05.129Z,37.36
2023-02-15T15:58:32.798Z,37.75
2023-02-15T16:01:10.536Z,38.21
2023-02-15T16:03:37.503Z,38.12
2023-02-15T16:06:04.668Z,39.70
2023-02-15T16:08:35.206Z,39.06
2023-02-15T16:11:21.979Z,38.98
2023-02-15T16:13:49.298Z,38.28
2023-02-15T16:16:26.209Z,39.33
2023-02-15T16:18:53.508Z,39.46
2023-02-15T16:21:28.043Z,38.91
2023-02-15T16:24:16.077Z,38.24
2023-02-15T16:27:02.699Z,38.58
2023-02-15T16:29:34.904Z,39.28
2023-02-15T16:32:17.019Z,39.22
2023-02-15T16:34:56.131Z,38.99
2023-02-15T16:37:27.874Z,38.86
2023-02-15T16:39:56.501Z,39.83
2023-02-15T16:42:24.362Z,39.77
2023-02-15T16:45:01.693Z,39.78
2023-02-15T16:47:32.412Z,39.82
2023-02-15T16:50:02.475Z,41.32
2023-02-15T16:52:30.239Z,40.55
2023-02-15T16:55:06.458Z,40.49
2023-02-15T16:57:39.080Z,39.69
2023-02-15T17:00:27.942Z,40.38
2023-02-15T17:03:05.853Z,40.56
2023-02-15T17:05:41.480Z,41.64
2023-02-15T17:08:15.733Z,40.77
2023-02-15T17:10:46.499Z,41.01
2023-02-15T17:13:16.937Z,41.04
2023-02-15T17:16:05.342Z,41.40
2023-02-15T17:18:52.405Z,41.25
2023-02-15T17:21:29.453Z,41.06
2023-02-15T17:24:05.297Z,40.68
2023-02-15T17:26:35.583Z,40.37
2023-02-15T17:29:13.929Z,42.16
2023-02-15T17:31:41.418Z,42.61
2023-02-15T17:34:46.312Z,42.01
2023-02-15T17:37:23.525Z,42.86
2023-02-15T17:39:50.325Z,42.20
2023-02-15T17:42:17.190Z,42.92
2023-02-15T17:44:44.422Z,42.37
2023-02-15T17:47:17.701Z,42.61
2023-02-15T17:50:03.691Z,41.78
2023-02-15T17:52:31.298Z,42.91
2023-02-15T17:55:16.973Z,42.66
2023-02-15T17:57:43.759Z,42.57
2023-02-15T18:00:33.212Z,41.68
2023-02-15T18:03:20.519Z,41.03
2023-02-15T18:06:05.822Z,41.46
2023-02-15T18:08:51.273Z,41.75
2023-02-15T18:11:37.051Z,40.94
2023-02-15T18:14:10.962Z,40.82
2023-02-15T18:16:43.310Z,41.01
2023-02-15T18:19:22.611Z,40.70
2023-02-15T18:21:50.550Z,40.94
2023-02-15T18:24:21.239Z,40.49
2023-02-15T18:26:48.714Z,40.75
2023-02-15T18:29:15.591Z,40.78
2023-02-15T18:31:44.423Z,40.62
2023-02-15T18:34:32.327Z,39.99
2023-02-15T18:37:02.702Z,39.64
2023-02-15T18:39:46.564Z,39.88
2023-02-15T18:42:29.277Z,39.72
2023-02-15T18:45:01.155Z,39.79
2023-02-15T18:47:28.130Z,39.78
2023-02-15T18:49:55.062Z,40.75
2023-02-15T18:52:24.859Z,39.55
2023-02-15T18:54:55.999Z,39.82
2023-02-15T18:57:23.046Z,40.79
2023-02-15T18:59:49.838Z,41.54
2023-02-15T19:02:18.621Z,40.62
2023-02-15T19:04:46.852Z,40.13
2023-02-15T19:07:21.831Z,41.18
2023-02-15T19:09:52.920Z,41.64
2023-02-15T19:12:27.730Z,40.13
2023-02-15T19:14:56.065Z,40.06
2023-02-15T19:17:24.297Z,39.55
2023-02-15T19:19:52.337Z,39.70
2023-02-15T19:22:27.237Z,39.32
2023-02-15T19:24:56.737Z,39.44
2023-02-15T19:27:31.373Z,38.74
2023-02-15T19:30:00.629Z,38.71
2023-02-15T19:32:27.923Z,39.20
2023-02-15T19:34:54.629Z,39.12
2023-02-15T19:37:42.458Z,39.73
2023-02-15T19:40:22.960Z,39.16
2023-02-15T19:42:50.709Z,39.80
2023-02-15T19:45:23.534Z,39.37
2023-02-15T19:47:52.039Z,39.84
2023-02-15T19:50:21.430Z,39.46
2023-02-15T19:52:48.584Z,39.51
2023-02-15T19:55:22.573Z,39.95
2023-02-15T19:57:51.607Z,39.63
2023-02-15T20:00:23.655Z,40.07
2023-02-15T20:02:50.607Z,40.00
2023-02-15T20:05:17.693Z,40.57
2023-02-15T20:07:47.155Z,40.30
2023-02-15T20:10:19.672Z,40.57
2023-02-15T20:12:47.709Z,41.00
2023-02-15T20:15:35.218Z,40.61
2023-02-15T20:18:06.897Z,41.47
2023-02-15T20:20:42.987Z,41.03
2023-02-15T20:23:31.784Z,40.95
2023-02-15T20:26:01.168Z,41.75
2023-02-15T20:28:31.875Z,41.04
2023-02-15T20:30:58.971Z,41.67
2023-02-15T20:33:25.776Z,41.67
2023-02-15T20:35:52.978Z,41.70
2023-02-15T20:38:23.308Z,42.07
2023-02-15T20:41:09.631Z,41.76
2023-02-15T20:43:39.474Z,42.02
2023-02-15T20:46:08.513Z,41.50
2023-02-15T20:48:37.585Z,42.72
2023-02-15T20:51:11.393Z,42.28
2023-02-15T20:53:38.311Z,42.56
2023-02-15T20:56:06.095Z,41.94
2023-02-15T20:58:32.995Z,42.43
2023-02-15T21:01:02.347Z,41.85
2023-02-15T21:03:35.411Z,41.86
2023-02-15T21:06:02.553Z,42.21
2023-02-15T21:08:30.568Z,41.92
2023-02-15T21:10:57.526Z,42.01
2023-02-15T21:13:31.467Z,45.17
2023-02-15T21:15:58.989Z,44.72
2023-02-15T21:18:28.750Z,43.49
2023-02-15T21:21:01.113Z,43.34
2023-02-15T21:23:42.289Z,42.58
2023-02-15T21:26:19.537Z,42.37
2023-02-15T21:28:48.472Z,42.96
2023-02-15T21:31:21.268Z,42.57
2023-02-15T21:33:48.417Z,42.50
2023-02-15T21:36:24.518Z,42.40
2023-02-15T21:38:53.772Z,43.03
2023-02-15T21:41:41.869Z,42.40
2023-02-15T21:44:36.514Z,44.68
2023-02-15T21:47:22.387Z,43.54
2023-02-15T21:49:49.237Z,43.23
2023-02-15T21:52:21.126Z,43.04
2023-02-15T21:54:48.008Z,43.63
2023-02-15T21:57:17.145Z,43.38
2023-02-15T21:59:44.360Z,43.55
2023-02-15T22:02:29.709Z,42.77
2023-02-15T22:04:58.127Z,43.40
2023-02-15T22:07:24.900Z,43.75
2023-02-15T22:09:51.790Z,43.27
2023-02-15T22:12:21.128Z,42.67
2023-02-15T22:14:53.473Z,43.37
2023-02-15T22:17:23.163Z,42.55
2023-02-15T22:19:49.934Z,42.31
2023-02-15T22:22:16.787Z,42.82
2023-02-15T22:24:44.823Z,43.47
2023-02-15T22:27:25.567Z,42.69
2023-02-15T22:29:53.410Z,43.49
2023-02-15T22:32:23.814Z,43.52
2023-02-15T22:34:51.932Z,42.91
2023-02-15T22:37:19.072Z,43.18
2023-02-15T22:39:46.155Z,43.40
2023-02-15T22:42:25.772Z,43.19
2023-02-15T22:44:57.053Z,42.92
2023-02-15T22:47:27.571Z,43.78
2023-02-15T22:49:54.703Z,44.34
2023-02-15T22:52:21.810Z,44.53
2023-02-15T22:54:48.658Z,43.96
2023-02-15T22:57:31.829Z,44.10
2023-02-15T23:00:01.082Z,43.78
2023-02-15T23:02:27.877Z,43.67
2023-02-15T23:04:55.762Z,43.69
2023-02-15T23:07:23.207Z,43.34
2023-02-15T23:09:51.167Z,43.92
2023-02-15T23:12:53.974Z,45.38
2023-02-15T23:15:20.887Z,44.59
2023-02-15T23:17:47.543Z,44.50
2023-02-15T23:20:17.651Z,44.92
2023-02-15T23:22:44.650Z,44.31
2023-02-15T23:25:12.288Z,44.00
2023-02-15T23:27:57.055Z,44.14
2023-02-15T23:30:24.405Z,44.07
2023-02-15T23:32:54.028Z,44.24
2023-02-15T23:35:20.991Z,44.55
2023-02-15T23:37:48.723Z,44.40
2023-02-15T23:40:35.807Z,44.00
2023-02-15T23:43:02.959Z,43.98
2023-02-15T23:45:32.578Z,44.16
2023-02-15T23:48:18.984Z,44.47
2023-02-15T23:50:45.851Z,43.89
2023-02-15T23:53:12.643Z,43.92
2023-02-15T23:55:43.568Z,44.36
2023-02-15T23:58:17.216Z,44.09
